x

Buoy B01 - Western Maine Shelf (44030) Wave Buoy

3:04am - Fri 22nd Jun 2018 All times are EDT. -4 hours from GMT.

  • Sig Wave height 2.3ft
  • Peak Period 3s
  • Wind
    16mph, 18mph gusts
  • Sea Temp 61°f
  • Air Temp 60°f
  • Sea Pressure 1012.8mb
  • Buoy B01 - Western Maine Shelf
  • Buoy B01 - Western Maine Shelf

More Historic Weather Station data

Upgrade to MSW Pro to gain access to the past 30 days of data for over 8000 Wavebouys and Weather Stations around the globe.

Join

Comparision Forecast

View Surf forecast
   
Fri 06/22 3:04am 2.5ft 3s 16 18 mph 1012.8mb 61f 60f
2:04am 1ft 2s 16 20 mph 1012.4mb 61f 60f
1:04am 1ft 8s 13 16 mph 1012.1mb 61f 61f
12:04am 1ft 8s 7 9 mph 1011.8mb 61f 60f
Thu 06/21 11:04pm 1ft 8s 4 7 mph 1011.4mb 61f 61f
10:04pm 1ft 8s 7 7 mph 1010.8mb 62f 60f
9:04pm 0.7ft  -  4 7 mph 1009.9mb 62f 60f
8:04pm 1ft 3s 2 4 mph 1008.8mb 62f 62f
7:04pm 1.3ft 6s 7 7 mph 1007.8mb 61f 62f
6:04pm 1.3ft 6s 11 13 mph 1007.1mb 61f 62f
5:04pm 1.3ft 8s 9 11 mph 1007.3mb 62f 64f
4:04pm 1.3ft 8s 9 11 mph 1007.3mb 62f 64f
3:04pm 1.3ft 8s 9 11 mph 1007.1mb 62f 64f
2:04pm 1.3ft 8s 9 9 mph 1007.4mb 62f 65f
1:04pm 1.3ft 8s 7 7 mph 1007.5mb 62f 65f
12:04pm 1.3ft 8s 2 2 mph 1007.4mb 64f 67f
11:04am 1ft 8s 2 4 mph 1007.3mb 62f 66f
9:04am 1.3ft 8s 4 4 mph 1006.4mb 60f 64f
8:04am 1.6ft 8s  -  2 mph 1006.2mb 61f 63f
7:04am 1.6ft 8s 4 7 mph 1005.4mb 60f 61f
6:04am 1.6ft 8s 7 9 mph 1004.9mb 60f 61f
5:04am 1.6ft 8s 7 9 mph 1004.4mb 60f 60f
4:04am 1.3ft 8s 7 9 mph 1004.3mb 60f 61f
3:04am 1.6ft 6s 9 9 mph 1004.6mb 60f 61f
2:04am 1.3ft 8s 7 7 mph 1004.9mb 60f 61f
1:04am 1.3ft 8s 9 11 mph 1005.1mb 60f 63f
12:04am 1.3ft 8s 9 9 mph 1005.5mb 59f 61f
Wed 06/20 11:04pm 1.3ft 8s 9 9 mph 1005.5mb 59f 62f
10:04pm 1.3ft 6s 11 11 mph 1005.5mb 60f 63f
9:04pm 1.3ft 6s 9 11 mph 1005.2mb 60f 64f
8:04pm 1.6ft 8s 9 9 mph 1004.8mb 60f 63f
7:04pm 1.6ft 6s 9 11 mph 1004.9mb 60f 63f
6:04pm 2ft 6s 11 13 mph 1005.1mb 61f 62f
5:04pm 2ft 6s 13 16 mph 1005.6mb 61f 63f
4:04pm 2ft 3s 16 18 mph 1006.4mb 61f 63f
2:04pm 1.6ft 6s 16 18 mph 1007.3mb 62f 64f
1:04pm 2ft 6s 13 13 mph 1008.1mb 62f 64f
12:04pm 1.3ft 8s 11 13 mph 1009.1mb 62f 63f
11:04am 1.3ft 8s 9 9 mph 1009.7mb 61f 63f
10:04am 1.3ft 6s 7 7 mph 1010.4mb 61f 63f
9:04am 1.3ft 8s 9 9 mph 1010.8mb 60f 63f
8:04am 1.6ft 8s 9 9 mph 1010.8mb 60f 63f
7:04am 1.3ft 8s 4 4 mph 1010.3mb 60f 64f
6:04am 1.6ft 8s 4 4 mph 1009.8mb 60f 62f
5:04am 1.6ft 8s 7 7 mph 1009.6mb 60f 59f
4:04am 1.6ft 8s 4 7 mph 1009.5mb 60f 60f
3:04am 1.6ft 8s 4 4 mph 1009.6mb 60f 60f
2:04am 1.6ft 8s 4 7 mph 1009.8mb 60f 61f
1:04am 1.6ft 8s 7 7 mph 1010.1mb 61f 61f
12:04am 2ft 6s 4 7 mph 1010.3mb 61f 62f
Tue 06/19 11:04pm 1.3ft 6s 7 7 mph 1009.9mb 61f 62f
10:04pm 1.6ft 6s 2 4 mph 1009.4mb 61f 62f
9:04pm 1.6ft 6s 2 2 mph 1008.5mb 62f 63f
8:04pm 1.6ft 6s 7 7 mph 1007.7mb 62f 64f
7:04pm 1.6ft 6s 7 9 mph 1006.8mb 62f 64f
6:04pm 2ft 6s 7 9 mph 1006mb 62f 64f
5:04pm 2ft 6s 9 11 mph 1005.6mb 61f 65f
4:04pm 2ft 6s 2 4 mph 1005.1mb 62f 69f
3:04pm 1.6ft 5s 2 4 mph 1005.4mb 61f 67f
2:04pm 1.6ft 5s 7 9 mph 1005.3mb 61f 67f
1:04pm 2ft 5s 9 13 mph 1005.3mb 60f 68f
12:04pm 2.5ft 5s 7 11 mph 1005.4mb 60f 64f
11:04am 2.5ft 6s 9 11 mph 1005.4mb 59f 65f
10:04am 2.5ft 6s 7 9 mph 1005.1mb 59f 65f
9:04am 2.5ft 5s 9 13 mph 1004.6mb 58f 63f
8:04am 2.5ft 5s 9 11 mph 1004.1mb 58f 63f
7:04am 2.5ft 5s 4 7 mph 1003.4mb 58f 62f
6:04am 2.5ft 5s 7 9 mph 1002.5mb 58f 61f
5:04am 2.5ft 5s 4 7 mph 1001.2mb 58f 62f
4:04am 2.5ft 5s 4 7 mph 1000.6mb 57f 62f
3:04am 3ft 5s 7 9 mph 999.9mb 57f 63f
2:04am 3ft 5s 9 11 mph 999.6mb 57f 59f
1:04am 3ft 5s 16 18 mph 999.5mb 56f 60f
12:04am 3.5ft 5s 16 20 mph 1000.1mb 56f 61f
Mon 06/18 11:04pm 3.5ft 5s 13 16 mph 1001.3mb 56f 60f
10:04pm 3.5ft 5s 11 13 mph 1002.7mb 55f 59f
9:04pm 4.5ft 5s 16 18 mph 1002.6mb 55f 61f
8:04pm 3.5ft 5s 16 18 mph 1003.4mb 56f 62f
7:04pm 4ft 5s 25 29 mph 1002.7mb 57f 66f
6:04pm 3.5ft 5s 18 20 mph 1002.7mb 57f 62f
5:04pm 3.5ft 5s 20 22 mph 1003.8mb 57f 64f
4:04pm 3ft 5s 18 20 mph 1004.4mb 55f 63f
3:04pm 3ft 5s 16 18 mph 1005.7mb 56f 63f
2:04pm 2.5ft 5s 18 20 mph 1006mb 58f 63f
1:04pm 2.5ft 5s 13 16 mph 1007.3mb 58f 62f
12:04pm 2.5ft 5s 13 16 mph 1008.3mb 59f 62f
11:04am 2ft 4s 13 16 mph 1009mb 59f 62f
10:04am 2ft 5s 13 16 mph 1009.9mb 59f 61f